sensor_id;sensor_type;location;lat;lon;timestamp;pressure;altitude;pressure_sealevel;temperature;humidity
78841;BME280;68379;47.190;27.558;2024-01-25T00:01:25;99506.16;;;2.81;68.38
78841;BME280;68379;47.190;27.558;2024-01-25T00:03:59;99501.95;;;2.84;68.27
78841;BME280;68379;47.190;27.558;2024-01-25T00:06:32;99504.34;;;2.87;68.28
78841;BME280;68379;47.190;27.558;2024-01-25T00:09:03;99509.67;;;2.92;67.93
78841;BME280;68379;47.190;27.558;2024-01-25T00:11:39;99511.88;;;2.98;67.63
78841;BME280;68379;47.190;27.558;2024-01-25T00:14:13;99504.95;;;3.06;67.25
78841;BME280;68379;47.190;27.558;2024-01-25T00:16:45;99502.60;;;3.11;67.10
78841;BME280;68379;47.190;27.558;2024-01-25T00:19:20;99499.91;;;3.16;66.72
78841;BME280;68379;47.190;27.558;2024-01-25T00:21:53;99495.00;;;3.18;66.75
78841;BME280;68379;47.190;27.558;2024-01-25T00:24:27;99494.84;;;3.16;67.00
78841;BME280;68379;47.190;27.558;2024-01-25T00:27:00;99489.42;;;3.17;66.99
78841;BME280;68379;47.190;27.558;2024-01-25T00:29:34;99492.04;;;3.18;67.29
78841;BME280;68379;47.190;27.558;2024-01-25T00:32:07;99493.38;;;3.21;67.38
78841;BME280;68379;47.190;27.558;2024-01-25T00:34:40;99499.50;;;3.21;67.36
78841;BME280;68379;47.190;27.558;2024-01-25T00:37:13;99493.62;;;3.17;67.34
78841;BME280;68379;47.190;27.558;2024-01-25T00:39:46;99486.34;;;3.13;67.54
78841;BME280;68379;47.190;27.558;2024-01-25T00:42:17;99481.68;;;3.10;67.64
78841;BME280;68379;47.190;27.558;2024-01-25T00:44:53;99476.14;;;3.07;67.81
78841;BME280;68379;47.190;27.558;2024-01-25T00:47:26;99482.25;;;3.07;67.93
78841;BME280;68379;47.190;27.558;2024-01-25T00:50:00;99482.42;;;3.07;67.91
78841;BME280;68379;47.190;27.558;2024-01-25T00:52:30;99482.08;;;3.07;67.97
78841;BME280;68379;47.190;27.558;2024-01-25T00:55:03;99480.85;;;3.07;68.03
78841;BME280;68379;47.190;27.558;2024-01-25T00:57:38;99472.80;;;3.08;68.04
78841;BME280;68379;47.190;27.558;2024-01-25T01:00:16;99471.39;;;3.09;68.11
78841;BME280;68379;47.190;27.558;2024-01-25T01:02:52;99471.51;;;3.13;68.11
78841;BME280;68379;47.190;27.558;2024-01-25T01:05:26;99467.23;;;3.18;68.00
78841;BME280;68379;47.190;27.558;2024-01-25T01:08:00;99463.96;;;3.26;67.76
78841;BME280;68379;47.190;27.558;2024-01-25T01:10:47;99461.44;;;3.33;67.44
78841;BME280;68379;47.190;27.558;2024-01-25T01:13:21;99465.73;;;3.37;67.52
78841;BME280;68379;47.190;27.558;2024-01-25T01:15:52;99460.64;;;3.38;67.57
78841;BME280;68379;47.190;27.558;2024-01-25T01:18:26;99462.35;;;3.40;67.54
78841;BME280;68379;47.190;27.558;2024-01-25T01:20:59;99463.49;;;3.45;67.63
78841;BME280;68379;47.190;27.558;2024-01-25T01:23:33;99457.66;;;3.49;67.46
78841;BME280;68379;47.190;27.558;2024-01-25T01:26:05;99446.94;;;3.63;66.89
78841;BME280;68379;47.190;27.558;2024-01-25T01:28:39;99445.98;;;3.70;66.75
78841;BME280;68379;47.190;27.558;2024-01-25T01:31:14;99443.81;;;3.72;66.61
78841;BME280;68379;47.190;27.558;2024-01-25T01:33:49;99440.13;;;3.73;66.81
78841;BME280;68379;47.190;27.558;2024-01-25T01:36:20;99433.98;;;3.75;66.66
78841;BME280;68379;47.190;27.558;2024-01-25T01:38:54;99438.06;;;3.81;66.53
78841;BME280;68379;47.190;27.558;2024-01-25T01:41:28;99431.70;;;3.85;66.16
78841;BME280;68379;47.190;27.558;2024-01-25T01:44:00;99432.71;;;3.87;66.14
78841;BME280;68379;47.190;27.558;2024-01-25T01:46:35;99423.26;;;3.87;66.23
78841;BME280;68379;47.190;27.558;2024-01-25T01:49:11;99419.21;;;3.89;65.79
78841;BME280;68379;47.190;27.558;2024-01-25T01:51:43;99415.64;;;3.93;65.74
78841;BME280;68379;47.190;27.558;2024-01-25T01:54:15;99413.81;;;3.97;65.67
78841;BME280;68379;47.190;27.558;2024-01-25T01:56:50;99407.26;;;4.03;65.84
78841;BME280;68379;47.190;27.558;2024-01-25T01:59:24;99402.66;;;4.04;65.20
78841;BME280;68379;47.190;27.558;2024-01-25T02:01:56;99402.41;;;4.09;65.17
78841;BME280;68379;47.190;27.558;2024-01-25T02:04:29;99400.63;;;4.10;65.16
78841;BME280;68379;47.190;27.558;2024-01-25T02:07:02;99404.83;;;4.10;65.18
78841;BME280;68379;47.190;27.558;2024-01-25T02:09:37;99402.00;;;4.12;64.93
78841;BME280;68379;47.190;27.558;2024-01-25T02:12:14;99402.70;;;4.11;65.17
78841;BME280;68379;47.190;27.558;2024-01-25T02:14:48;99400.61;;;4.11;65.27
78841;BME280;68379;47.190;27.558;2024-01-25T02:17:21;99401.81;;;4.12;65.11
78841;BME280;68379;47.190;27.558;2024-01-25T02:19:54;99400.73;;;4.13;65.09
78841;BME280;68379;47.190;27.558;2024-01-25T02:22:26;99400.34;;;4.16;64.92
78841;BME280;68379;47.190;27.558;2024-01-25T02:24:59;99401.35;;;4.17;64.93
78841;BME280;68379;47.190;27.558;2024-01-25T02:27:31;99401.54;;;4.16;64.98
78841;BME280;68379;47.190;27.558;2024-01-25T02:30:12;99395.66;;;4.13;65.06
78841;BME280;68379;47.190;27.558;2024-01-25T02:32:45;99394.84;;;4.11;65.03
78841;BME280;68379;47.190;27.558;2024-01-25T02:35:17;99397.67;;;4.10;64.78
78841;BME280;68379;47.190;27.558;2024-01-25T02:37:49;99392.39;;;4.11;64.67
78841;BME280;68379;47.190;27.558;2024-01-25T02:40:22;99398.30;;;4.13;64.69
78841;BME280;68379;47.190;27.558;2024-01-25T02:42:55;99399.63;;;4.16;64.76
78841;BME280;68379;47.190;27.558;2024-01-25T02:45:27;99398.18;;;4.18;64.68
78841;BME280;68379;47.190;27.558;2024-01-25T02:47:59;99394.67;;;4.19;64.36
78841;BME280;68379;47.190;27.558;2024-01-25T02:50:33;99396.05;;;4.20;64.47
78841;BME280;68379;47.190;27.558;2024-01-25T02:53:06;99401.14;;;4.19;64.47
78841;BME280;68379;47.190;27.558;2024-01-25T02:55:40;99403.11;;;4.16;64.71
78841;BME280;68379;47.190;27.558;2024-01-25T02:58:13;99402.27;;;4.15;64.42
78841;BME280;68379;47.190;27.558;2024-01-25T03:00:46;99404.20;;;4.14;64.61
78841;BME280;68379;47.190;27.558;2024-01-25T03:03:18;99405.48;;;4.12;64.72
78841;BME280;68379;47.190;27.558;2024-01-25T03:05:51;99398.91;;;4.09;64.68
78841;BME280;68379;47.190;27.558;2024-01-25T03:08:28;99401.70;;;4.09;64.75
78841;BME280;68379;47.190;27.558;2024-01-25T03:11:04;99403.28;;;4.09;64.70
78841;BME280;68379;47.190;27.558;2024-01-25T03:13:39;99395.23;;;4.09;64.24
78841;BME280;68379;47.190;27.558;2024-01-25T03:16:12;99403.58;;;4.11;64.16
78841;BME280;68379;47.190;27.558;2024-01-25T03:18:44;99404.05;;;4.13;64.24
78841;BME280;68379;47.190;27.558;2024-01-25T03:21:16;99392.80;;;4.17;64.40
78841;BME280;68379;47.190;27.558;2024-01-25T03:23:48;99382.80;;;4.19;64.71
78841;BME280;68379;47.190;27.558;2024-01-25T03:26:22;99385.08;;;4.18;64.72
78841;BME280;68379;47.190;27.558;2024-01-25T03:28:52;99384.77;;;4.16;64.93
78841;BME280;68379;47.190;27.558;2024-01-25T03:31:28;99381.35;;;4.12;65.01
78841;BME280;68379;47.190;27.558;2024-01-25T03:34:01;99379.25;;;4.12;65.10
78841;BME280;68379;47.190;27.558;2024-01-25T03:36:33;99383.81;;;4.12;65.10
78841;BME280;68379;47.190;27.558;2024-01-25T03:39:07;99380.68;;;4.11;65.10
78841;BME280;68379;47.190;27.558;2024-01-25T03:41:42;99377.55;;;4.10;65.00
78841;BME280;68379;47.190;27.558;2024-01-25T03:44:15;99384.43;;;4.08;64.81
78841;BME280;68379;47.190;27.558;2024-01-25T03:46:49;99378.52;;;4.06;64.96
78841;BME280;68379;47.190;27.558;2024-01-25T03:49:24;99380.55;;;4.00;64.87
78841;BME280;68379;47.190;27.558;2024-01-25T03:51:58;99378.02;;;3.96;64.98
78841;BME280;68379;47.190;27.558;2024-01-25T03:54:32;99386.60;;;3.94;64.87
78841;BME280;68379;47.190;27.558;2024-01-25T03:57:04;99376.45;;;3.95;64.86
78841;BME280;68379;47.190;27.558;2024-01-25T03:59:36;99359.81;;;3.97;64.88
78841;BME280;68379;47.190;27.558;2024-01-25T04:02:09;99357.70;;;3.97;65.37
78841;BME280;68379;47.190;27.558;2024-01-25T04:04:41;99364.98;;;4.00;65.79
78841;BME280;68379;47.190;27.558;2024-01-25T04:07:13;99367.13;;;3.98;66.13
78841;BME280;68379;47.190;27.558;2024-01-25T04:09:45;99371.49;;;3.98;66.32
78841;BME280;68379;47.190;27.558;2024-01-25T04:12:18;99369.22;;;3.98;66.36
78841;BME280;68379;47.190;27.558;2024-01-25T04:14:50;99369.73;;;3.98;66.52
78841;BME280;68379;47.190;27.558;2024-01-25T04:17:22;99372.05;;;3.97;66.54
78841;BME280;68379;47.190;27.558;2024-01-25T04:19:54;99368.95;;;3.94;66.48
78841;BME280;68379;47.190;27.558;2024-01-25T04:22:26;99377.93;;;3.91;66.34
78841;BME280;68379;47.190;27.558;2024-01-25T04:24:58;99374.12;;;3.90;66.23
78841;BME280;68379;47.190;27.558;2024-01-25T04:27:33;99374.02;;;3.86;66.32
78841;BME280;68379;47.190;27.558;2024-01-25T04:30:07;99377.07;;;3.82;66.30
78841;BME280;68379;47.190;27.558;2024-01-25T04:32:42;99381.85;;;3.79;66.18
78841;BME280;68379;47.190;27.558;2024-01-25T04:35:16;99385.20;;;3.77;66.39
78841;BME280;68379;47.190;27.558;2024-01-25T04:37:49;99384.00;;;3.75;66.21
78841;BME280;68379;47.190;27.558;2024-01-25T04:40:25;99389.81;;;3.73;66.18
78841;BME280;68379;47.190;27.558;2024-01-25T04:42:57;99397.34;;;3.72;66.13
78841;BME280;68379;47.190;27.558;2024-01-25T04:45:29;99397.73;;;3.70;66.11
78841;BME280;68379;47.190;27.558;2024-01-25T04:48:01;99397.95;;;3.68;66.04
78841;BME280;68379;47.190;27.558;2024-01-25T04:50:33;99406.17;;;3.68;65.94
78841;BME280;68379;47.190;27.558;2024-01-25T04:53:05;99405.98;;;3.68;66.05
78841;BME280;68379;47.190;27.558;2024-01-25T04:55:37;99413.69;;;3.67;66.18
78841;BME280;68379;47.190;27.558;2024-01-25T04:58:09;99407.82;;;3.63;66.20
78841;BME280;68379;47.190;27.558;2024-01-25T05:00:41;99403.27;;;3.64;66.25
78841;BME280;68379;47.190;27.558;2024-01-25T05:03:12;99408.17;;;3.63;66.43
78841;BME280;68379;47.190;27.558;2024-01-25T05:05:44;99402.52;;;3.57;66.68
78841;BME280;68379;47.190;27.558;2024-01-25T05:08:16;99403.70;;;3.60;66.83
78841;BME280;68379;47.190;27.558;2024-01-25T05:10:48;99404.86;;;3.62;66.76
78841;BME280;68379;47.190;27.558;2024-01-25T05:13:20;99395.56;;;3.65;66.92
78841;BME280;68379;47.190;27.558;2024-01-25T05:15:51;99386.50;;;3.64;67.28
78841;BME280;68379;47.190;27.558;2024-01-25T05:18:23;99384.79;;;3.62;67.78
78841;BME280;68379;47.190;27.558;2024-01-25T05:20:55;99387.45;;;3.60;67.61
78841;BME280;68379;47.190;27.558;2024-01-25T05:23:28;99392.73;;;3.57;67.76
78841;BME280;68379;47.190;27.558;2024-01-25T05:26:02;99393.95;;;3.57;67.61
78841;BME280;68379;47.190;27.558;2024-01-25T05:28:34;99400.09;;;3.55;67.42
78841;BME280;68379;47.190;27.558;2024-01-25T05:31:06;99401.68;;;3.54;67.38
78841;BME280;68379;47.190;27.558;2024-01-25T05:33:48;99401.55;;;3.52;67.43
78841;BME280;68379;47.190;27.558;2024-01-25T05:36:20;99411.20;;;3.49;67.39
78841;BME280;68379;47.190;27.558;2024-01-25T05:38:57;99409.32;;;3.47;67.56
78841;BME280;68379;47.190;27.558;2024-01-25T05:41:30;99406.05;;;3.44;67.73
78841;BME280;68379;47.190;27.558;2024-01-25T05:44:02;99409.04;;;3.44;67.72
78841;BME280;68379;47.190;27.558;2024-01-25T05:46:36;99408.35;;;3.43;67.84
78841;BME280;68379;47.190;27.558;2024-01-25T05:49:13;99412.02;;;3.43;67.60
78841;BME280;68379;47.190;27.558;2024-01-25T05:51:47;99413.04;;;3.44;68.03
78841;BME280;68379;47.190;27.558;2024-01-25T05:54:16;99406.25;;;3.43;68.13
78841;BME280;68379;47.190;27.558;2024-01-25T05:56:49;99402.97;;;3.41;68.32
78841;BME280;68379;47.190;27.558;2024-01-25T05:59:22;99398.80;;;3.39;68.34
78841;BME280;68379;47.190;27.558;2024-01-25T06:01:54;99405.09;;;3.39;68.22
78841;BME280;68379;47.190;27.558;2024-01-25T06:04:26;99408.23;;;3.40;68.26
78841;BME280;68379;47.190;27.558;2024-01-25T06:06:58;99406.27;;;3.42;68.17
78841;BME280;68379;47.190;27.558;2024-01-25T06:09:29;99405.70;;;3.45;67.95
78841;BME280;68379;47.190;27.558;2024-01-25T06:12:01;99399.89;;;3.47;67.99
78841;BME280;68379;47.190;27.558;2024-01-25T06:14:35;99391.61;;;3.52;67.92
78841;BME280;68379;47.190;27.558;2024-01-25T06:17:07;99388.91;;;3.55;67.78
78841;BME280;68379;47.190;27.558;2024-01-25T06:19:39;99392.70;;;3.59;67.75
78841;BME280;68379;47.190;27.558;2024-01-25T06:22:10;99393.33;;;3.63;67.72
78841;BME280;68379;47.190;27.558;2024-01-25T06:24:42;99394.66;;;3.66;67.62
78841;BME280;68379;47.190;27.558;2024-01-25T06:27:14;99397.42;;;3.68;67.66
78841;BME280;68379;47.190;27.558;2024-01-25T06:29:46;99394.11;;;3.68;67.65
78841;BME280;68379;47.190;27.558;2024-01-25T06:32:19;99388.88;;;3.67;67.72
78841;BME280;68379;47.190;27.558;2024-01-25T06:34:51;99387.14;;;3.67;67.70
78841;BME280;68379;47.190;27.558;2024-01-25T06:37:23;99389.79;;;3.65;67.76
78841;BME280;68379;47.190;27.558;2024-01-25T06:39:55;99383.16;;;3.65;67.75
78841;BME280;68379;47.190;27.558;2024-01-25T06:42:27;99382.44;;;3.66;67.88
78841;BME280;68379;47.190;27.558;2024-01-25T06:45:00;99383.80;;;3.68;67.81
78841;BME280;68379;47.190;27.558;2024-01-25T06:47:35;99390.70;;;3.71;67.74
78841;BME280;68379;47.190;27.558;2024-01-25T06:50:10;99391.17;;;3.75;67.67
78841;BME280;68379;47.190;27.558;2024-01-25T06:52:42;99394.45;;;3.78;67.52
78841;BME280;68379;47.190;27.558;2024-01-25T06:55:17;99392.65;;;3.80;67.50
78841;BME280;68379;47.190;27.558;2024-01-25T06:57:49;99392.95;;;3.83;67.38
78841;BME280;68379;47.190;27.558;2024-01-25T07:00:21;99390.98;;;3.85;67.26
78841;BME280;68379;47.190;27.558;2024-01-25T07:02:52;99391.58;;;3.90;67.04
78841;BME280;68379;47.190;27.558;2024-01-25T07:05:24;99392.17;;;3.95;66.99
78841;BME280;68379;47.190;27.558;2024-01-25T07:07:56;99387.13;;;4.03;66.77
78841;BME280;68379;47.190;27.558;2024-01-25T07:10:28;99388.34;;;4.13;66.75
78841;BME280;68379;47.190;27.558;2024-01-25T07:12:59;99390.09;;;4.21;66.16
78841;BME280;68379;47.190;27.558;2024-01-25T07:15:31;99386.44;;;4.28;66.11
78841;BME280;68379;47.190;27.558;2024-01-25T07:18:03;99383.82;;;4.36;66.00
78841;BME280;68379;47.190;27.558;2024-01-25T07:20:35;99384.40;;;4.42;65.89
78841;BME280;68379;47.190;27.558;2024-01-25T07:23:06;99383.99;;;4.44;65.51
78841;BME280;68379;47.190;27.558;2024-01-25T07:25:38;99376.80;;;4.46;65.40
78841;BME280;68379;47.190;27.558;2024-01-25T07:28:10;99372.60;;;4.46;65.54
78841;BME280;68379;47.190;27.558;2024-01-25T07:30:41;99370.52;;;4.45;65.57
78841;BME280;68379;47.190;27.558;2024-01-25T07:33:13;99368.77;;;4.45;65.55
78841;BME280;68379;47.190;27.558;2024-01-25T07:35:45;99365.76;;;4.47;65.63
78841;BME280;68379;47.190;27.558;2024-01-25T07:38:18;99364.14;;;4.49;65.45
78841;BME280;68379;47.190;27.558;2024-01-25T07:40:50;99365.64;;;4.52;65.58
78841;BME280;68379;47.190;27.558;2024-01-25T07:43:23;99368.54;;;4.55;65.60
78841;BME280;68379;47.190;27.558;2024-01-25T07:45:55;99365.16;;;4.57;65.50
78841;BME280;68379;47.190;27.558;2024-01-25T07:48:26;99366.56;;;4.57;65.53
78841;BME280;68379;47.190;27.558;2024-01-25T07:50:58;99362.55;;;4.57;65.44
78841;BME280;68379;47.190;27.558;2024-01-25T07:53:30;99363.21;;;4.59;65.34
78841;BME280;68379;47.190;27.558;2024-01-25T07:56:02;99359.33;;;4.60;65.43
78841;BME280;68379;47.190;27.558;2024-01-25T07:58:35;99361.16;;;4.63;65.47
78841;BME280;68379;47.190;27.558;2024-01-25T08:01:07;99359.21;;;4.65;65.24
78841;BME280;68379;47.190;27.558;2024-01-25T08:03:39;99360.54;;;4.69;65.10
78841;BME280;68379;47.190;27.558;2024-01-25T08:06:11;99357.01;;;4.77;65.23
78841;BME280;68379;47.190;27.558;2024-01-25T08:08:42;99354.95;;;4.90;64.49
78841;BME280;68379;47.190;27.558;2024-01-25T08:11:14;99357.87;;;5.07;63.91
78841;BME280;68379;47.190;27.558;2024-01-25T08:13:48;99357.23;;;5.25;64.47
78841;BME280;68379;47.190;27.558;2024-01-25T08:16:19;99354.27;;;5.38;63.71
78841;BME280;68379;47.190;27.558;2024-01-25T08:18:51;99352.54;;;5.44;63.29
78841;BME280;68379;47.190;27.558;2024-01-25T08:21:22;99359.02;;;5.44;63.51
78841;BME280;68379;47.190;27.558;2024-01-25T08:23:54;99363.45;;;5.42;63.13
78841;BME280;68379;47.190;27.558;2024-01-25T08:26:25;99366.72;;;5.38;62.94
78841;BME280;68379;47.190;27.558;2024-01-25T08:28:57;99372.90;;;5.36;62.76
78841;BME280;68379;47.190;27.558;2024-01-25T08:31:29;99383.12;;;5.34;62.68
78841;BME280;68379;47.190;27.558;2024-01-25T08:34:00;99388.90;;;5.33;62.47
78841;BME280;68379;47.190;27.558;2024-01-25T08:36:32;99389.91;;;5.35;62.27
78841;BME280;68379;47.190;27.558;2024-01-25T08:39:05;99391.20;;;5.46;61.28
78841;BME280;68379;47.190;27.558;2024-01-25T08:41:39;99394.28;;;5.56;61.84
78841;BME280;68379;47.190;27.558;2024-01-25T08:44:12;99395.82;;;5.64;61.66
78841;BME280;68379;47.190;27.558;2024-01-25T08:46:43;99392.39;;;5.68;61.66
78841;BME280;68379;47.190;27.558;2024-01-25T08:49:15;99407.36;;;5.72;61.37
78841;BME280;68379;47.190;27.558;2024-01-25T08:51:47;99403.44;;;5.74;61.26
78841;BME280;68379;47.190;27.558;2024-01-25T08:54:18;99409.67;;;5.77;61.34
78841;BME280;68379;47.190;27.558;2024-01-25T08:56:50;99414.63;;;5.75;60.77
78841;BME280;68379;47.190;27.558;2024-01-25T08:59:22;99421.01;;;5.73;60.29
78841;BME280;68379;47.190;27.558;2024-01-25T09:01:54;99421.59;;;5.71;60.72
78841;BME280;68379;47.190;27.558;2024-01-25T09:04:25;99427.27;;;5.67;60.83
78841;BME280;68379;47.190;27.558;2024-01-25T09:06:57;99428.65;;;5.62;61.17
78841;BME280;68379;47.190;27.558;2024-01-25T09:09:29;99432.66;;;5.56;61.41
78841;BME280;68379;47.190;27.558;2024-01-25T09:12:01;99436.50;;;5.50;61.64
78841;BME280;68379;47.190;27.558;2024-01-25T09:14:32;99434.52;;;5.44;61.95
78841;BME280;68379;47.190;27.558;2024-01-25T09:17:04;99442.83;;;5.42;61.82
78841;BME280;68379;47.190;27.558;2024-01-25T09:19:36;99455.73;;;5.38;62.05
78841;BME280;68379;47.190;27.558;2024-01-25T09:22:07;99458.27;;;5.33;62.37
78841;BME280;68379;47.190;27.558;2024-01-25T09:24:39;99458.20;;;5.29;62.72
78841;BME280;68379;47.190;27.558;2024-01-25T09:27:11;99456.59;;;5.23;65.89
78841;BME280;68379;47.190;27.558;2024-01-25T09:29:44;99439.30;;;5.14;66.93
78841;BME280;68379;47.190;27.558;2024-01-25T09:32:15;99430.45;;;5.11;67.03
78841;BME280;68379;47.190;27.558;2024-01-25T09:34:47;99422.17;;;5.12;67.37
78841;BME280;68379;47.190;27.558;2024-01-25T09:37:19;99415.05;;;5.17;67.37
78841;BME280;68379;47.190;27.558;2024-01-25T09:39:53;99420.23;;;5.20;68.62
78841;BME280;68379;47.190;27.558;2024-01-25T09:42:25;99415.30;;;5.21;68.45
78841;BME280;68379;47.190;27.558;2024-01-25T09:44:57;99409.10;;;5.24;68.60
78841;BME280;68379;47.190;27.558;2024-01-25T09:47:29;99385.23;;;5.33;67.97
78841;BME280;68379;47.190;27.558;2024-01-25T09:50:00;99375.41;;;5.47;68.02
78841;BME280;68379;47.190;27.558;2024-01-25T09:52:33;99374.98;;;5.63;68.14
78841;BME280;68379;47.190;27.558;2024-01-25T09:55:08;99370.05;;;5.84;68.50
78841;BME280;68379;47.190;27.558;2024-01-25T09:57:47;99376.61;;;5.95;67.92
78841;BME280;68379;47.190;27.558;2024-01-25T10:00:21;99368.61;;;5.98;67.32
78841;BME280;68379;47.190;27.558;2024-01-25T10:02:52;99368.80;;;6.04;67.23
78841;BME280;68379;47.190;27.558;2024-01-25T10:05:24;99366.36;;;6.10;67.09
78841;BME280;68379;47.190;27.558;2024-01-25T10:07:59;99367.93;;;6.16;66.67
78841;BME280;68379;47.190;27.558;2024-01-25T10:10:33;99368.48;;;6.22;66.44
78841;BME280;68379;47.190;27.558;2024-01-25T10:13:05;99367.56;;;6.29;66.21
78841;BME280;68379;47.190;27.558;2024-01-25T10:15:42;99365.95;;;6.36;65.92
78841;BME280;68379;47.190;27.558;2024-01-25T10:18:16;99360.25;;;6.45;65.58
78841;BME280;68379;47.190;27.558;2024-01-25T10:20:48;99354.05;;;6.53;65.07
78841;BME280;68379;47.190;27.558;2024-01-25T10:23:20;99352.27;;;6.59;64.10
78841;BME280;68379;47.190;27.558;2024-01-25T10:25:52;99351.14;;;6.62;64.36
78841;BME280;68379;47.190;27.558;2024-01-25T10:28:25;99347.14;;;6.66;63.74
78841;BME280;68379;47.190;27.558;2024-01-25T10:30:59;99346.00;;;6.69;62.79
78841;BME280;68379;47.190;27.558;2024-01-25T10:33:32;99339.38;;;6.72;62.55
78841;BME280;68379;47.190;27.558;2024-01-25T10:36:10;99335.63;;;6.80;62.63
78841;BME280;68379;47.190;27.558;2024-01-25T10:38:44;99335.58;;;6.87;62.78
78841;BME280;68379;47.190;27.558;2024-01-25T10:41:16;99332.77;;;6.92;62.27
78841;BME280;68379;47.190;27.558;2024-01-25T10:43:48;99335.08;;;6.92;62.34
78841;BME280;68379;47.190;27.558;2024-01-25T10:46:20;99333.58;;;6.89;61.27
78841;BME280;68379;47.190;27.558;2024-01-25T10:48:53;99327.86;;;6.87;61.01
78841;BME280;68379;47.190;27.558;2024-01-25T10:51:25;99327.71;;;6.97;61.61
78841;BME280;68379;47.190;27.558;2024-01-25T10:53:58;99320.20;;;7.07;60.93
78841;BME280;68379;47.190;27.558;2024-01-25T10:56:30;99315.48;;;7.11;60.62
78841;BME280;68379;47.190;27.558;2024-01-25T10:59:02;99316.33;;;7.17;60.92
78841;BME280;68379;47.190;27.558;2024-01-25T11:01:35;99316.19;;;7.26;60.15
78841;BME280;68379;47.190;27.558;2024-01-25T11:04:13;99323.55;;;7.37;60.18
78841;BME280;68379;47.190;27.558;2024-01-25T11:06:47;99320.42;;;7.41;58.90
78841;BME280;68379;47.190;27.558;2024-01-25T11:09:21;99320.40;;;7.42;58.80
78841;BME280;68379;47.190;27.558;2024-01-25T11:11:58;99310.54;;;7.42;59.64
78841;BME280;68379;47.190;27.558;2024-01-25T11:14:30;99303.99;;;7.43;59.29
78841;BME280;68379;47.190;27.558;2024-01-25T11:17:18;99297.63;;;7.45;59.45
78841;BME280;68379;47.190;27.558;2024-01-25T11:19:51;99306.16;;;7.42;58.95
78841;BME280;68379;47.190;27.558;2024-01-25T11:22:24;99303.15;;;7.42;58.86
78841;BME280;68379;47.190;27.558;2024-01-25T11:25:18;99294.86;;;7.48;58.80
78841;BME280;68379;47.190;27.558;2024-01-25T11:27:51;99295.58;;;7.58;58.98
78841;BME280;68379;47.190;27.558;2024-01-25T11:30:23;99295.55;;;7.68;58.48
78841;BME280;68379;47.190;27.558;2024-01-25T11:32:55;99291.17;;;7.77;58.07
78841;BME280;68379;47.190;27.558;2024-01-25T11:35:28;99293.52;;;7.80;57.69
78841;BME280;68379;47.190;27.558;2024-01-25T11:38:00;99290.07;;;7.84;57.87
78841;BME280;68379;47.190;27.558;2024-01-25T11:40:31;99289.66;;;7.94;58.24
78841;BME280;68379;47.190;27.558;2024-01-25T11:43:06;99284.36;;;8.00;58.87
78841;BME280;68379;47.190;27.558;2024-01-25T11:45:43;99283.21;;;8.07;58.17
78841;BME280;68379;47.190;27.558;2024-01-25T11:48:14;99288.23;;;8.13;57.94
78841;BME280;68379;47.190;27.558;2024-01-25T11:50:46;99279.25;;;8.14;57.28
78841;BME280;68379;47.190;27.558;2024-01-25T11:53:18;99274.46;;;8.14;57.87
78841;BME280;68379;47.190;27.558;2024-01-25T11:55:50;99275.95;;;8.22;57.45
78841;BME280;68379;47.190;27.558;2024-01-25T11:58:23;99276.14;;;8.26;56.64
78841;BME280;68379;47.190;27.558;2024-01-25T12:00:55;99278.42;;;8.26;54.52
78841;BME280;68379;47.190;27.558;2024-01-25T12:03:27;99288.18;;;8.29;54.22
78841;BME280;68379;47.190;27.558;2024-01-25T12:05:59;99292.61;;;8.33;53.93
78841;BME280;68379;47.190;27.558;2024-01-25T12:08:31;99296.54;;;8.35;52.84
78841;BME280;68379;47.190;27.558;2024-01-25T12:11:06;99299.59;;;8.38;52.53
78841;BME280;68379;47.190;27.558;2024-01-25T12:13:41;99288.77;;;8.42;52.48
78841;BME280;68379;47.190;27.558;2024-01-25T12:16:15;99283.23;;;8.48;52.25
78841;BME280;68379;47.190;27.558;2024-01-25T12:18:47;99282.48;;;8.62;54.13
78841;BME280;68379;47.190;27.558;2024-01-25T12:21:19;99271.52;;;8.76;53.64
78841;BME280;68379;47.190;27.558;2024-01-25T12:23:51;99271.98;;;8.91;53.08
78841;BME280;68379;47.190;27.558;2024-01-25T12:26:22;99266.88;;;8.95;52.27
78841;BME280;68379;47.190;27.558;2024-01-25T12:28:54;99263.80;;;8.93;51.47
78841;BME280;68379;47.190;27.558;2024-01-25T12:31:26;99259.96;;;8.87;50.90
78841;BME280;68379;47.190;27.558;2024-01-25T12:33:58;99261.46;;;8.81;51.38
78841;BME280;68379;47.190;27.558;2024-01-25T12:36:30;99256.21;;;8.76;51.30
78841;BME280;68379;47.190;27.558;2024-01-25T12:39:03;99270.05;;;8.69;50.20
78841;BME280;68379;47.190;27.558;2024-01-25T12:41:37;99270.91;;;8.61;51.23
78841;BME280;68379;47.190;27.558;2024-01-25T12:44:08;99273.14;;;8.54;52.36
78841;BME280;68379;47.190;27.558;2024-01-25T12:46:40;99279.14;;;8.40;53.34
78841;BME280;68379;47.190;27.558;2024-01-25T12:49:12;99284.44;;;8.25;53.94
78841;BME280;68379;47.190;27.558;2024-01-25T12:51:44;99279.45;;;8.13;54.44
78841;BME280;68379;47.190;27.558;2024-01-25T12:54:16;99285.13;;;8.03;54.48
78841;BME280;68379;47.190;27.558;2024-01-25T12:56:48;99283.16;;;7.94;54.62
78841;BME280;68379;47.190;27.558;2024-01-25T12:59:20;99281.59;;;7.80;54.62
78841;BME280;68379;47.190;27.558;2024-01-25T13:01:52;99283.23;;;7.73;55.04
78841;BME280;68379;47.190;27.558;2024-01-25T13:04:24;99285.65;;;7.65;55.29
78841;BME280;68379;47.190;27.558;2024-01-25T13:06:56;99286.61;;;7.58;55.54
78841;BME280;68379;47.190;27.558;2024-01-25T13:09:28;99280.16;;;7.51;55.89
78841;BME280;68379;47.190;27.558;2024-01-25T13:12:03;99286.69;;;7.46;55.91
78841;BME280;68379;47.190;27.558;2024-01-25T13:14:35;99282.34;;;7.39;56.14
78841;BME280;68379;47.190;27.558;2024-01-25T13:17:07;99286.64;;;7.32;56.30
78841;BME280;68379;47.190;27.558;2024-01-25T13:19:38;99284.16;;;7.28;56.16
78841;BME280;68379;47.190;27.558;2024-01-25T13:22:10;99279.05;;;7.23;56.24
78841;BME280;68379;47.190;27.558;2024-01-25T13:24:42;99276.16;;;7.20;56.41
78841;BME280;68379;47.190;27.558;2024-01-25T13:27:13;99271.66;;;7.18;56.46
78841;BME280;68379;47.190;27.558;2024-01-25T13:29:45;99271.11;;;7.19;56.47